Weather at Old Harbor Airport

Public forecast

Using degrees Fahrenheit for public forecast. Weather courtesy of forecast.io.

Closest aviation weather report (METAR) to Old Harbor Airport

Closest report is Akhiok Airport, 34.2 nm (63.3 km) WSW. Retrieved 2020/09/27 03:56 UTC (34 minutes ago):

PAKH 270356Z AUTO FEW050 A2932 RMK AO2 SLPNO PWINO FZRANO

Closest aviation forecast (TAF) to Old Harbor Airport

Closest forecast is Kodiak Airport, 40.6 nm (75.2 km) NE. Retrieved 2020-09-27 00:34 UTC (4 hours ago):

TAF PADQ 262332Z 2700/2724 08010KT P6SM -SHRA BKN035 FM270700 07015G25KT P6SM -RA SCT025 OVC060 FM270900 05020G35KT 5SM -RA BKN025 FM271200 04035G48KT 1SM RA BKN005 OVC012